Aérodrome :
LOGIN :

S'inscrire | Disclaimer

   EN    FR    IT 

 










Légende :    VFR   VFR Marginal   IFR   IFR Intensif   IFR Très Intensif
Visi : 
Plafond : 
>= 8 km
>= 3000ft
5 à 8 km
1000 à 3000 ft
1500m à 5 km
500 à 1000 ft
800 à 1500m
200 à 500 ft
< 800m
< 200 ft
Symboles :   Orages  Brouillard  Fortes neiges  Fortes précipitations  Vent > 20 kt
SIGMETs :   Divers  Orages  Givrage  Turbulence  Onde Orograph.  Cendres Volcan.







- Altitude de l'aérodrome : 68 ft


ESCM - Uppsala

DERNIER METAR :
  • 200020Z AUTO 20011KT 9999 NCD 17/13 Q1004

METARs EXPIRÉS :
  • 192350Z AUTO 20012KT 9999 NCD 17/13 Q1004
  • 192320Z AUTO 21011KT 9999 FEW056/// 17/13 Q1004
  • 192250Z AUTO 21009KT 9999 NCD 17/13 Q1005
  • 192220Z AUTO 20009KT 9999 NCD 16/13 Q1005
  • 192150Z AUTO 21010KT 9999 NCD 17/13 Q1005

Prévision TAF périmée.
Pas de NOTAMs connus pour ce terrain.
1 SIGMET publié pour la FIR Sweden (ESAA) :
 
Turbulence forte
ESAA SIGMET 1 VALID 192230/200100 ESSA
ESAA SWEDEN FIR SEV TURB FCST WI N6325 E01213 - N6301 E01428 - N6114 E01439 - N6017 E01233 - N6325 E01213 SFC/FL070 STNR NC=



MET'MAP, la Météo Aéronautique d'un coup d'oeil ! - Copyright ORBIFLY Décembre 2007 - Disclaimer

ORBIFLY MET'MAP TEAM :

Programmation & Développement : Alexandra Zaïnal
Conception & Développement : Baudouin d'Aumeries
Co-Programmation & Développement : Marc-Olivier Méhu
Soutien technique & logistique : Manuel Goepfert

Contact : metmap@orbifly.com




SOURCES & CREDITS :

   NOAA